createdAt,value
2023-08-22T00:01:26.446Z,20.50
2023-08-22T00:03:58.143Z,20.48
2023-08-22T00:06:29.631Z,20.46
2023-08-22T00:08:56.675Z,20.47
2023-08-22T00:11:23.501Z,20.46
2023-08-22T00:13:50.354Z,20.38
2023-08-22T00:16:17.262Z,20.30
2023-08-22T00:18:44.164Z,20.23
2023-08-22T00:21:11.054Z,20.14
2023-08-22T00:23:39.202Z,20.16
2023-08-22T00:26:06.293Z,20.19
2023-08-22T00:28:32.984Z,20.16
2023-08-22T00:31:00.349Z,20.09
2023-08-22T00:33:27.193Z,20.03
2023-08-22T00:35:54.191Z,19.97
2023-08-22T00:38:20.856Z,19.88
2023-08-22T00:40:48.248Z,19.85
2023-08-22T00:43:15.068Z,19.86
2023-08-22T00:45:44.350Z,19.86
2023-08-22T00:48:29.639Z,19.84
2023-08-22T00:50:56.428Z,19.80
2023-08-22T00:53:25.353Z,19.77
2023-08-22T00:55:52.394Z,19.73
2023-08-22T00:58:19.815Z,19.70
2023-08-22T01:00:48.027Z,19.68
2023-08-22T01:03:19.415Z,19.63
2023-08-22T01:05:54.225Z,19.63
2023-08-22T01:08:28.844Z,19.59
2023-08-22T01:11:00.176Z,19.58
2023-08-22T01:13:34.534Z,19.64
2023-08-22T01:16:02.395Z,19.63
2023-08-22T01:18:30.230Z,19.61
2023-08-22T01:21:06.143Z,19.62
2023-08-22T01:23:34.215Z,19.66
2023-08-22T01:26:05.798Z,19.66
2023-08-22T01:28:46.439Z,19.69
2023-08-22T01:31:30.545Z,19.69
2023-08-22T01:34:14.762Z,19.69
2023-08-22T01:36:43.719Z,19.71
2023-08-22T01:39:12.351Z,19.71
2023-08-22T01:41:39.533Z,19.70
2023-08-22T01:44:06.338Z,19.67
2023-08-22T01:46:33.304Z,19.65
2023-08-22T01:49:00.305Z,19.61
2023-08-22T01:51:27.169Z,19.59
2023-08-22T01:53:53.903Z,19.55
2023-08-22T01:56:20.574Z,19.54
2023-08-22T01:58:47.352Z,19.52
2023-08-22T02:01:14.872Z,19.49
2023-08-22T02:03:43.170Z,19.49
2023-08-22T02:06:11.081Z,19.49
2023-08-22T02:08:39.585Z,19.47
2023-08-22T02:11:06.776Z,19.44
2023-08-22T02:13:33.739Z,19.41
2023-08-22T02:16:02.017Z,19.34
2023-08-22T02:18:29.028Z,19.24
2023-08-22T02:20:57.395Z,19.14
2023-08-22T02:23:24.641Z,19.11
2023-08-22T02:25:51.293Z,19.10
2023-08-22T02:28:18.201Z,19.07
2023-08-22T02:30:44.895Z,19.02
2023-08-22T02:33:11.747Z,19.00
2023-08-22T02:35:38.901Z,18.95
2023-08-22T02:38:06.073Z,18.88
2023-08-22T02:40:32.827Z,18.85
2023-08-22T02:42:59.886Z,18.82
2023-08-22T02:45:27.198Z,18.78
2023-08-22T02:47:54.711Z,18.75
2023-08-22T02:50:24.857Z,18.72
2023-08-22T02:52:52.446Z,18.68
2023-08-22T02:55:19.354Z,18.64
2023-08-22T02:57:46.397Z,18.63
2023-08-22T03:00:14.349Z,18.58
2023-08-22T03:02:41.355Z,18.60
2023-08-22T03:05:12.989Z,18.61
2023-08-22T03:07:40.499Z,18.64
2023-08-22T03:10:11.501Z,18.65
2023-08-22T03:12:38.334Z,18.58
2023-08-22T03:15:05.838Z,18.60
2023-08-22T03:17:33.209Z,18.60
2023-08-22T03:20:00.925Z,18.55
2023-08-22T03:22:27.905Z,18.54
2023-08-22T03:24:54.804Z,18.47
2023-08-22T03:27:21.936Z,18.43
2023-08-22T03:29:48.576Z,18.40
2023-08-22T03:32:15.409Z,18.37
2023-08-22T03:34:43.330Z,18.37
2023-08-22T03:37:09.969Z,18.37
2023-08-22T03:39:36.797Z,18.38
2023-08-22T03:42:03.536Z,18.36
2023-08-22T03:44:31.699Z,18.38
2023-08-22T03:46:58.697Z,18.36
2023-08-22T03:49:25.529Z,18.35
2023-08-22T03:51:52.368Z,18.37
2023-08-22T03:54:19.423Z,18.39
2023-08-22T03:56:46.203Z,18.39
2023-08-22T03:59:15.967Z,18.34
2023-08-22T04:01:42.812Z,18.32
2023-08-22T04:04:09.829Z,18.32
2023-08-22T04:06:36.568Z,18.33
2023-08-22T04:09:03.855Z,18.33
2023-08-22T04:11:30.664Z,18.32
2023-08-22T04:13:57.558Z,18.31
2023-08-22T04:16:24.543Z,18.30
2023-08-22T04:18:52.443Z,18.29
2023-08-22T04:21:19.286Z,18.29
2023-08-22T04:23:46.039Z,18.27
2023-08-22T04:26:12.743Z,18.25
2023-08-22T04:28:40.289Z,18.21
2023-08-22T04:31:07.666Z,18.20
2023-08-22T04:33:34.516Z,18.16
2023-08-22T04:36:01.358Z,18.13
2023-08-22T04:38:28.084Z,18.13
2023-08-22T04:40:55.164Z,18.11
2023-08-22T04:43:22.266Z,18.11
2023-08-22T04:45:52.747Z,18.10
2023-08-22T04:48:22.325Z,18.07
2023-08-22T04:50:49.868Z,17.99
2023-08-22T04:53:16.764Z,17.90
2023-08-22T04:55:46.640Z,17.85
2023-08-22T04:58:13.940Z,17.86
2023-08-22T05:00:40.836Z,17.87
2023-08-22T05:03:07.833Z,17.87
2023-08-22T05:05:34.756Z,17.87
2023-08-22T05:08:11.383Z,17.88
2023-08-22T05:10:38.364Z,17.90
2023-08-22T05:13:05.937Z,17.92
2023-08-22T05:15:32.806Z,17.91
2023-08-22T05:17:59.752Z,17.94
2023-08-22T05:20:27.703Z,17.98
2023-08-22T05:22:54.840Z,18.00
2023-08-22T05:25:21.888Z,18.02
2023-08-22T05:27:49.511Z,18.03
2023-08-22T05:30:16.286Z,18.03
2023-08-22T05:32:43.659Z,18.04
2023-08-22T05:35:12.095Z,18.05
2023-08-22T05:37:39.429Z,18.06
2023-08-22T05:40:12.276Z,18.08
2023-08-22T05:42:41.155Z,18.13
2023-08-22T05:45:09.092Z,18.23
2023-08-22T05:47:36.157Z,18.29
2023-08-22T05:50:06.393Z,18.33
2023-08-22T05:52:33.166Z,18.37
2023-08-22T05:54:59.876Z,18.40
2023-08-22T05:57:28.973Z,18.43
2023-08-22T05:59:56.097Z,18.43
2023-08-22T06:02:22.831Z,18.45
2023-08-22T06:04:49.950Z,18.44
2023-08-22T06:07:17.185Z,18.44
2023-08-22T06:09:44.966Z,18.43
2023-08-22T06:12:16.408Z,18.43
2023-08-22T06:14:43.394Z,18.45
2023-08-22T06:17:10.804Z,18.47
2023-08-22T06:19:43.029Z,18.50
2023-08-22T06:22:10.231Z,18.52
2023-08-22T06:24:37.429Z,18.53
2023-08-22T06:27:04.305Z,18.57
2023-08-22T06:29:33.268Z,18.59
2023-08-22T06:32:02.774Z,18.65
2023-08-22T06:34:34.364Z,18.76
2023-08-22T06:37:01.084Z,18.89
2023-08-22T06:39:29.513Z,19.06
2023-08-22T06:41:56.420Z,19.24
2023-08-22T06:44:23.313Z,19.46
2023-08-22T06:46:50.290Z,19.70
2023-08-22T06:49:17.422Z,19.92
2023-08-22T06:51:44.206Z,20.13
2023-08-22T06:54:13.921Z,20.32
2023-08-22T06:56:43.521Z,20.47
2023-08-22T06:59:49.913Z,20.68
2023-08-22T07:02:20.662Z,20.81
2023-08-22T07:04:58.946Z,20.93
2023-08-22T07:07:26.600Z,21.03
2023-08-22T07:09:53.391Z,21.14
2023-08-22T07:12:20.305Z,21.23
2023-08-22T07:14:54.279Z,21.30
2023-08-22T07:17:21.098Z,21.41
2023-08-22T07:19:47.826Z,21.52
2023-08-22T07:22:14.579Z,21.62
2023-08-22T07:24:44.629Z,21.70
2023-08-22T07:27:12.730Z,21.78
2023-08-22T07:29:39.627Z,21.86
2023-08-22T07:32:07.727Z,21.90
2023-08-22T07:34:34.708Z,21.92
2023-08-22T07:37:01.842Z,22.01
2023-08-22T07:39:29.409Z,22.05
2023-08-22T07:41:57.151Z,22.12
2023-08-22T07:44:25.622Z,22.24
2023-08-22T07:46:52.584Z,22.35
2023-08-22T07:49:22.181Z,22.38
2023-08-22T07:51:51.751Z,22.40
2023-08-22T07:54:19.158Z,22.45
2023-08-22T08:00:00.214Z,22.62
2023-08-22T08:02:41.783Z,22.68
2023-08-22T08:05:11.967Z,22.67
2023-08-22T08:07:39.954Z,22.66
2023-08-22T08:10:07.513Z,22.69
2023-08-22T08:13:12.529Z,22.73
2023-08-22T08:16:07.248Z,22.88
2023-08-22T08:18:35.213Z,22.85
2023-08-22T08:21:02.120Z,22.89
2023-08-22T08:23:31.483Z,22.99
2023-08-22T08:25:58.081Z,22.97
2023-08-22T08:28:37.141Z,23.00
2023-08-22T08:31:09.912Z,22.99
2023-08-22T08:33:36.996Z,23.02
2023-08-22T08:36:06.245Z,23.10
2023-08-22T08:38:48.158Z,23.16
2023-08-22T08:41:23.309Z,23.28
2023-08-22T08:43:50.932Z,23.36
2023-08-22T08:46:17.900Z,23.46
2023-08-22T08:48:46.800Z,23.52
2023-08-22T08:51:15.540Z,23.46
2023-08-22T08:53:42.949Z,23.47
2023-08-22T08:56:13.222Z,23.50
2023-08-22T08:58:40.340Z,23.53
2023-08-22T09:01:12.258Z,23.52
2023-08-22T09:03:39.609Z,23.53
2023-08-22T09:06:06.238Z,23.58
2023-08-22T09:08:33.275Z,23.66
2023-08-22T09:11:00.062Z,23.76
2023-08-22T09:13:38.829Z,23.91
2023-08-22T09:16:17.187Z,24.08
2023-08-22T09:18:44.400Z,24.13
2023-08-22T09:21:12.197Z,24.20
2023-08-22T09:23:41.781Z,24.30
2023-08-22T09:26:09.306Z,24.37
2023-08-22T09:28:41.049Z,24.35
2023-08-22T09:31:08.334Z,24.40
2023-08-22T09:33:49.398Z,24.48
2023-08-22T09:36:21.438Z,24.59
2023-08-22T09:38:55.908Z,24.68
2023-08-22T09:41:28.054Z,24.80
2023-08-22T09:43:58.275Z,24.88
2023-08-22T09:46:26.027Z,24.94
2023-08-22T09:48:54.019Z,24.96
2023-08-22T09:51:24.882Z,24.99
2023-08-22T09:54:01.279Z,25.05
2023-08-22T09:56:28.237Z,25.15
2023-08-22T09:58:55.284Z,25.24
2023-08-22T10:01:26.597Z,25.37
2023-08-22T10:03:55.889Z,25.33
2023-08-22T10:06:42.552Z,25.30
2023-08-22T10:09:13.295Z,25.29
2023-08-22T10:11:43.363Z,25.35
2023-08-22T10:14:19.975Z,25.42
2023-08-22T10:16:47.238Z,25.48
2023-08-22T10:19:15.518Z,25.55
2023-08-22T10:21:45.066Z,25.55
2023-08-22T10:24:27.441Z,25.64
2023-08-22T10:27:12.572Z,25.68
2023-08-22T10:29:48.725Z,25.71
2023-08-22T10:32:15.436Z,25.80
2023-08-22T10:34:42.017Z,25.82
2023-08-22T10:37:20.957Z,25.85
2023-08-22T10:39:53.901Z,25.80
2023-08-22T10:42:23.584Z,25.78
2023-08-22T10:44:52.094Z,25.83
2023-08-22T10:47:21.071Z,25.90
2023-08-22T10:52:39.883Z,25.89
2023-08-22T10:55:13.339Z,25.88
2023-08-22T10:57:43.219Z,25.80
2023-08-22T11:00:23.339Z,25.90
2023-08-22T11:02:52.772Z,25.76
2023-08-22T11:05:20.122Z,25.78
2023-08-22T11:07:50.054Z,25.73
2023-08-22T11:10:19.465Z,25.81
2023-08-22T11:12:47.450Z,25.94
2023-08-22T11:15:15.909Z,26.02
2023-08-22T11:17:44.727Z,26.12
2023-08-22T11:20:17.786Z,26.18
2023-08-22T11:22:46.014Z,26.15
2023-08-22T11:25:14.033Z,26.17
2023-08-22T11:27:41.843Z,26.15
2023-08-22T11:30:10.378Z,26.30
2023-08-22T11:32:40.266Z,26.20
2023-08-22T11:35:08.811Z,26.21
2023-08-22T11:37:41.953Z,26.20
2023-08-22T11:40:16.491Z,26.25
2023-08-22T11:42:43.942Z,26.36
2023-08-22T11:45:18.955Z,26.44
2023-08-22T11:47:50.846Z,26.53
2023-08-22T11:50:22.553Z,26.50
2023-08-22T11:52:54.830Z,26.47
2023-08-22T11:55:29.440Z,26.52
2023-08-22T11:57:58.112Z,26.55
2023-08-22T12:00:32.572Z,26.61
2023-08-22T12:03:01.362Z,26.56
2023-08-22T12:05:36.553Z,26.57
2023-08-22T12:08:12.615Z,26.56
2023-08-22T12:10:47.942Z,26.67
2023-08-22T12:13:17.633Z,26.75
2023-08-22T12:15:45.753Z,26.69
2023-08-22T12:18:13.464Z,26.65
2023-08-22T12:20:43.027Z,26.60
2023-08-22T12:23:14.530Z,26.53
2023-08-22T12:25:43.559Z,26.52
2023-08-22T12:28:11.573Z,26.61
2023-08-22T12:30:40.048Z,26.51
2023-08-22T12:33:10.435Z,26.39
2023-08-22T12:35:46.372Z,26.42
2023-08-22T12:38:13.067Z,26.29
2023-08-22T12:40:40.999Z,26.28
2023-08-22T12:43:07.570Z,26.31
2023-08-22T12:45:34.225Z,26.35
2023-08-22T12:48:01.050Z,26.37
2023-08-22T12:50:27.795Z,26.41
2023-08-22T12:52:54.546Z,26.43
2023-08-22T12:55:22.388Z,26.48
2023-08-22T12:57:52.213Z,26.55
2023-08-22T13:00:21.327Z,26.58
2023-08-22T13:02:48.397Z,26.58
2023-08-22T13:05:15.606Z,26.50
2023-08-22T13:07:45.976Z,26.55
2023-08-22T13:10:15.639Z,26.40
2023-08-22T13:12:42.437Z,26.39
2023-08-22T13:15:11.765Z,26.39
2023-08-22T13:17:38.634Z,26.33
2023-08-22T13:20:06.525Z,26.33
2023-08-22T13:22:33.264Z,26.35
2023-08-22T13:24:59.987Z,26.35
2023-08-22T13:27:26.888Z,26.40
2023-08-22T13:29:53.500Z,26.44
2023-08-22T13:32:20.224Z,26.47
2023-08-22T13:34:46.972Z,26.52
2023-08-22T13:37:13.847Z,26.47
2023-08-22T13:39:40.764Z,26.49
2023-08-22T13:42:07.968Z,26.50
2023-08-22T13:44:36.511Z,26.54
2023-08-22T13:47:03.264Z,26.54
2023-08-22T13:49:29.919Z,26.59
2023-08-22T13:51:58.217Z,26.55
2023-08-22T13:54:25.401Z,26.58
2023-08-22T13:56:57.206Z,26.51
2023-08-22T13:59:24.970Z,26.48
2023-08-22T14:01:51.668Z,26.58
2023-08-22T14:04:20.896Z,26.58
2023-08-22T14:06:49.832Z,26.61
2023-08-22T14:09:26.204Z,26.61
2023-08-22T14:11:54.157Z,26.62
2023-08-22T14:14:21.063Z,26.61
2023-08-22T14:16:48.375Z,26.59
2023-08-22T14:19:15.086Z,26.60
2023-08-22T14:21:47.667Z,26.66
2023-08-22T14:24:15.315Z,26.72
2023-08-22T14:26:42.152Z,26.76
2023-08-22T14:29:08.829Z,26.81
2023-08-22T14:31:38.615Z,26.90
2023-08-22T14:34:05.365Z,26.92
2023-08-22T14:36:32.085Z,26.85
2023-08-22T14:38:59.004Z,26.80
2023-08-22T14:41:25.885Z,26.83
2023-08-22T14:43:54.209Z,26.81
2023-08-22T14:46:21.193Z,26.79
2023-08-22T14:48:48.197Z,26.75
2023-08-22T14:51:19.312Z,26.72
2023-08-22T14:53:46.106Z,26.75
2023-08-22T14:56:13.048Z,26.75
2023-08-22T14:58:50.818Z,26.65
2023-08-22T15:01:20.317Z,26.70
2023-08-22T15:03:48.063Z,26.58
2023-08-22T15:06:15.022Z,26.68
2023-08-22T15:08:42.146Z,26.74
2023-08-22T15:11:09.661Z,26.82
2023-08-22T15:13:36.503Z,26.99
2023-08-22T15:16:03.353Z,26.98
2023-08-22T15:18:30.541Z,27.03
2023-08-22T15:21:00.568Z,27.05
2023-08-22T15:23:29.672Z,27.14
2023-08-22T15:25:57.552Z,27.22
2023-08-22T15:28:25.509Z,27.13
2023-08-22T15:30:59.229Z,27.09
2023-08-22T15:33:29.611Z,26.98
2023-08-22T15:36:00.342Z,26.90
2023-08-22T15:38:35.464Z,26.87
2023-08-22T15:41:03.197Z,26.93
2023-08-22T15:43:40.388Z,27.03
2023-08-22T15:46:07.162Z,27.12
2023-08-22T15:48:33.940Z,27.10
2023-08-22T15:51:00.841Z,27.03
2023-08-22T15:53:27.801Z,26.99
2023-08-22T15:55:54.879Z,26.96
2023-08-22T15:58:21.652Z,26.99
2023-08-22T16:00:48.585Z,26.99
2023-08-22T16:03:15.999Z,27.05
2023-08-22T16:05:42.822Z,27.02
2023-08-22T16:08:09.720Z,27.00
2023-08-22T16:10:36.816Z,26.97
2023-08-22T16:13:03.671Z,26.82
2023-08-22T16:15:31.787Z,26.81
2023-08-22T16:17:58.879Z,26.74
2023-08-22T16:20:26.346Z,26.66
2023-08-22T16:22:53.139Z,26.57
2023-08-22T16:25:19.806Z,26.52
2023-08-22T16:27:46.846Z,26.48
2023-08-22T16:30:14.397Z,26.53
2023-08-22T16:32:41.320Z,26.53
2023-08-22T16:35:08.418Z,26.53
2023-08-22T16:37:35.203Z,26.53
2023-08-22T16:40:01.925Z,26.53
2023-08-22T16:42:28.891Z,26.56
2023-08-22T16:44:55.572Z,26.60
2023-08-22T16:47:22.205Z,26.68
2023-08-22T16:49:49.020Z,26.69
2023-08-22T16:52:15.682Z,26.61
2023-08-22T16:54:42.627Z,26.52
2023-08-22T16:57:09.758Z,26.47
2023-08-22T16:59:36.936Z,26.37
2023-08-22T17:02:04.230Z,26.31
2023-08-22T17:04:30.877Z,26.29
2023-08-22T17:06:57.738Z,26.25
2023-08-22T17:09:24.479Z,26.18
2023-08-22T17:11:51.197Z,26.14
2023-08-22T17:14:18.521Z,26.17
2023-08-22T17:16:45.288Z,26.11
2023-08-22T17:19:13.336Z,26.03
2023-08-22T17:21:40.739Z,26.00
2023-08-22T17:24:07.592Z,26.02
2023-08-22T17:26:34.448Z,25.86
2023-08-22T17:29:04.167Z,25.72
2023-08-22T17:31:31.672Z,25.69
2023-08-22T17:33:58.293Z,25.66
2023-08-22T17:36:24.964Z,25.62
2023-08-22T17:38:52.206Z,25.61
2023-08-22T17:41:19.162Z,25.56
2023-08-22T17:43:45.855Z,25.45
2023-08-22T17:46:14.282Z,25.38
2023-08-22T17:48:41.200Z,25.36
2023-08-22T17:51:07.880Z,25.26
2023-08-22T17:53:34.634Z,25.22
2023-08-22T17:56:01.300Z,25.20
2023-08-22T17:58:28.080Z,25.15
2023-08-22T18:00:54.719Z,25.07
2023-08-22T18:03:21.856Z,25.04
2023-08-22T18:05:57.746Z,25.01
2023-08-22T18:08:25.716Z,25.00
2023-08-22T18:10:53.902Z,24.94
2023-08-22T18:13:21.325Z,24.88
2023-08-22T18:18:31.241Z,24.73
2023-08-22T18:21:05.873Z,24.69
2023-08-22T18:23:32.959Z,24.63
2023-08-22T18:26:03.572Z,24.60
2023-08-22T18:28:32.802Z,24.54
2023-08-22T18:31:01.911Z,24.45
2023-08-22T18:33:29.137Z,24.39
2023-08-22T18:35:56.415Z,24.37
2023-08-22T18:38:23.180Z,24.31
2023-08-22T18:40:56.012Z,24.27
2023-08-22T18:43:22.795Z,24.21
2023-08-22T18:45:50.273Z,24.19
2023-08-22T18:48:18.412Z,24.20
2023-08-22T18:50:46.942Z,24.14
2023-08-22T18:53:15.560Z,24.08
2023-08-22T18:55:42.299Z,24.01
2023-08-22T18:58:08.955Z,23.99
2023-08-22T19:00:35.792Z,23.98
2023-08-22T19:03:02.670Z,23.97
2023-08-22T19:05:29.501Z,23.96
2023-08-22T19:07:56.236Z,23.88
2023-08-22T19:10:23.028Z,23.85
2023-08-22T19:12:49.707Z,23.80
2023-08-22T19:15:16.544Z,23.73
2023-08-22T19:17:43.916Z,23.68
2023-08-22T19:20:11.644Z,23.68
2023-08-22T19:22:41.313Z,23.63
2023-08-22T19:25:08.520Z,23.57
2023-08-22T19:27:37.727Z,23.53
2023-08-22T19:30:04.988Z,23.49
2023-08-22T19:32:48.247Z,23.47
2023-08-22T19:35:18.626Z,23.41
2023-08-22T19:37:45.940Z,23.40
2023-08-22T19:40:14.316Z,23.40
2023-08-22T19:42:41.088Z,23.36
2023-08-22T19:45:09.099Z,23.34
2023-08-22T19:47:38.493Z,23.36
2023-08-22T19:50:05.827Z,23.31
2023-08-22T19:52:32.823Z,23.27
2023-08-22T19:55:00.275Z,23.20
2023-08-22T19:57:30.005Z,23.14
2023-08-22T19:59:57.919Z,23.12
2023-08-22T20:02:25.325Z,23.13
2023-08-22T20:04:52.359Z,23.08
2023-08-22T20:07:19.093Z,22.98
2023-08-22T20:09:45.920Z,22.92
2023-08-22T20:12:12.664Z,22.86
2023-08-22T20:14:41.077Z,22.72
2023-08-22T20:17:08.801Z,22.57
2023-08-22T20:19:35.498Z,22.51
2023-08-22T20:22:02.498Z,22.43
2023-08-22T20:24:29.192Z,22.35
2023-08-22T20:27:02.940Z,22.29
2023-08-22T20:29:30.327Z,22.19
2023-08-22T20:31:57.687Z,22.11
2023-08-22T20:34:27.729Z,21.96
2023-08-22T20:36:54.257Z,21.85
2023-08-22T20:39:21.311Z,21.73
2023-08-22T20:41:48.396Z,21.62
2023-08-22T20:44:15.195Z,21.52
2023-08-22T20:46:42.101Z,21.45
2023-08-22T20:49:08.826Z,21.40
2023-08-22T20:51:36.474Z,21.31
2023-08-22T20:54:03.186Z,21.23
2023-08-22T20:56:29.940Z,21.13
2023-08-22T20:58:57.791Z,21.06
2023-08-22T21:01:24.728Z,21.00
2023-08-22T21:03:51.540Z,20.96
2023-08-22T21:06:18.314Z,20.91
2023-08-22T21:08:45.966Z,20.87
2023-08-22T21:11:12.565Z,20.80
2023-08-22T21:13:39.547Z,20.78
2023-08-22T21:16:06.420Z,20.74
2023-08-22T21:18:34.099Z,20.66
2023-08-22T21:21:01.365Z,20.57
2023-08-22T21:23:28.437Z,20.47
2023-08-22T21:25:58.548Z,20.44
2023-08-22T21:28:25.236Z,20.36
2023-08-22T21:30:52.613Z,20.31
2023-08-22T21:33:19.699Z,20.31
2023-08-22T21:35:47.705Z,20.21
2023-08-22T21:38:14.441Z,20.08
2023-08-22T21:40:48.057Z,19.99
2023-08-22T21:43:15.451Z,19.94
2023-08-22T21:45:43.232Z,19.90
2023-08-22T21:48:10.180Z,19.87
2023-08-22T21:50:37.150Z,19.80
2023-08-22T21:53:03.798Z,19.75
2023-08-22T21:55:30.579Z,19.70
2023-08-22T21:57:57.430Z,19.64
2023-08-22T22:00:24.199Z,19.55
2023-08-22T22:02:51.489Z,19.47
2023-08-22T22:05:18.541Z,19.40
2023-08-22T22:07:46.730Z,19.36
2023-08-22T22:10:13.616Z,19.31
2023-08-22T22:12:40.208Z,19.27
2023-08-22T22:15:07.255Z,19.25
2023-08-22T22:17:33.796Z,19.23
2023-08-22T22:20:00.567Z,19.18
2023-08-22T22:22:27.390Z,19.14
2023-08-22T22:24:54.022Z,19.09
2023-08-22T22:27:20.705Z,19.09
2023-08-22T22:29:47.506Z,19.07
2023-08-22T22:32:14.516Z,19.09
2023-08-22T22:34:41.125Z,19.05
2023-08-22T22:37:09.158Z,19.04
2023-08-22T22:39:35.783Z,18.97
2023-08-22T22:42:02.475Z,18.90
2023-08-22T22:44:29.357Z,18.87
2023-08-22T22:46:56.353Z,18.82
2023-08-22T22:49:23.039Z,18.79
2023-08-22T22:51:49.639Z,18.80
2023-08-22T22:54:16.444Z,18.78
2023-08-22T22:56:43.231Z,18.76
2023-08-22T22:59:09.848Z,18.75
2023-08-22T23:01:36.545Z,18.72
2023-08-22T23:04:03.916Z,18.70
2023-08-22T23:06:30.581Z,18.66
2023-08-22T23:08:57.321Z,18.60
2023-08-22T23:11:29.152Z,18.54
2023-08-22T23:14:10.468Z,18.50
2023-08-22T23:16:37.210Z,18.47
2023-08-22T23:19:04.003Z,18.47
2023-08-22T23:21:30.703Z,18.49
2023-08-22T23:23:57.526Z,18.50
2023-08-22T23:26:24.395Z,18.52
2023-08-22T23:28:51.013Z,18.51
2023-08-22T23:31:17.727Z,18.49
2023-08-22T23:33:44.262Z,18.47
2023-08-22T23:36:11.198Z,18.47
2023-08-22T23:38:38.353Z,18.41
2023-08-22T23:41:04.963Z,18.39
2023-08-22T23:43:31.620Z,18.38
2023-08-22T23:45:58.362Z,18.32
2023-08-22T23:48:24.980Z,18.29
2023-08-22T23:50:52.517Z,18.26
2023-08-22T23:53:21.880Z,18.25
2023-08-22T23:55:48.665Z,18.23
2023-08-22T23:58:15.330Z,18.19
